createdAt,value
2023-03-06T00:01:34.432Z,96.16
2023-03-06T00:04:01.424Z,96.21
2023-03-06T00:06:28.231Z,96.58
2023-03-06T00:08:55.199Z,96.32
2023-03-06T00:11:22.023Z,96.69
2023-03-06T00:13:48.866Z,96.47
2023-03-06T00:16:15.928Z,95.70
2023-03-06T00:18:42.784Z,95.23
2023-03-06T00:21:10.001Z,95.45
2023-03-06T00:23:37.025Z,94.99
2023-03-06T00:26:07.755Z,94.83
2023-03-06T00:28:35.266Z,94.31
2023-03-06T00:31:03.539Z,93.52
2023-03-06T00:33:30.627Z,93.58
2023-03-06T00:35:57.707Z,93.94
2023-03-06T00:38:24.579Z,94.24
2023-03-06T00:40:51.480Z,93.92
2023-03-06T00:43:18.302Z,93.89
2023-03-06T00:45:45.274Z,93.88
2023-03-06T00:48:12.211Z,93.71
2023-03-06T00:50:39.152Z,94.31
2023-03-06T00:53:06.041Z,94.51
2023-03-06T00:55:32.927Z,94.87
2023-03-06T00:57:59.712Z,94.43
2023-03-06T01:00:26.742Z,94.53
2023-03-06T01:02:53.575Z,94.68
2023-03-06T01:05:20.559Z,94.37
2023-03-06T01:07:47.465Z,94.01
2023-03-06T01:10:14.430Z,93.82
2023-03-06T01:12:41.234Z,93.70
2023-03-06T01:15:08.848Z,93.36
2023-03-06T01:17:35.742Z,93.55
2023-03-06T01:20:02.617Z,93.21
2023-03-06T01:22:29.681Z,92.84
2023-03-06T01:24:56.493Z,93.38
2023-03-06T01:27:23.274Z,93.32
2023-03-06T01:29:50.213Z,93.54
2023-03-06T01:32:17.003Z,93.83
2023-03-06T01:34:43.754Z,94.15
2023-03-06T01:37:10.809Z,94.28
2023-03-06T01:39:37.566Z,94.43
2023-03-06T01:42:05.027Z,94.59
2023-03-06T01:44:31.979Z,95.23
2023-03-06T01:46:58.776Z,95.83
2023-03-06T01:49:41.936Z,96.97
2023-03-06T01:52:12.398Z,97.35
2023-03-06T01:54:45.009Z,97.22
2023-03-06T01:57:29.488Z,97.51
2023-03-06T02:00:03.696Z,97.84
2023-03-06T02:02:30.636Z,97.59
2023-03-06T02:04:59.850Z,97.70
2023-03-06T02:07:27.056Z,98.08
2023-03-06T02:09:54.080Z,98.53
2023-03-06T02:12:22.832Z,98.40
2023-03-06T02:14:50.292Z,98.55
2023-03-06T02:17:20.157Z,98.75
2023-03-06T02:20:25.830Z,98.79
2023-03-06T02:23:02.054Z,99.07
2023-03-06T02:25:42.486Z,99.05
2023-03-06T02:28:15.406Z,98.77
2023-03-06T02:30:44.515Z,98.78
2023-03-06T02:33:14.358Z,98.93
2023-03-06T02:35:46.943Z,98.43
2023-03-06T02:38:19.048Z,97.63
2023-03-06T02:40:49.934Z,97.20
2023-03-06T02:43:21.260Z,96.60
2023-03-06T02:45:50.753Z,96.41
2023-03-06T02:48:18.782Z,95.62
2023-03-06T02:50:46.718Z,95.46
2023-03-06T02:53:15.678Z,95.54
2023-03-06T02:55:42.676Z,95.40
2023-03-06T02:58:09.896Z,95.73
2023-03-06T03:00:37.129Z,95.53
2023-03-06T03:03:04.596Z,95.16
2023-03-06T03:05:32.020Z,95.00
2023-03-06T03:07:59.079Z,94.71
2023-03-06T03:10:26.099Z,93.85
2023-03-06T03:12:52.965Z,94.64
2023-03-06T03:15:19.991Z,94.15
2023-03-06T03:17:46.836Z,94.80
2023-03-06T03:20:17.396Z,94.75
2023-03-06T03:22:52.034Z,94.62
2023-03-06T03:25:19.693Z,94.56
2023-03-06T03:27:46.606Z,95.11
2023-03-06T03:30:14.201Z,94.98
2023-03-06T03:32:41.217Z,94.50
2023-03-06T03:35:09.409Z,95.04
2023-03-06T03:37:37.046Z,94.92
2023-03-06T03:40:04.689Z,95.05
2023-03-06T03:42:31.518Z,95.38
2023-03-06T03:44:58.611Z,95.10
2023-03-06T03:47:25.436Z,95.77
2023-03-06T03:49:52.244Z,95.84
2023-03-06T03:52:19.224Z,95.39
2023-03-06T03:54:46.075Z,95.10
2023-03-06T03:57:12.947Z,94.83
2023-03-06T03:59:39.873Z,94.19
2023-03-06T04:02:06.708Z,93.53
2023-03-06T04:04:33.609Z,93.55
2023-03-06T04:07:00.541Z,92.38
2023-03-06T04:09:27.474Z,92.05
2023-03-06T04:11:54.348Z,91.19
2023-03-06T04:14:21.264Z,91.03
2023-03-06T04:16:48.117Z,90.94
2023-03-06T04:19:15.058Z,90.27
2023-03-06T04:21:41.900Z,89.31
2023-03-06T04:24:09.070Z,89.02
2023-03-06T04:26:36.012Z,89.36
2023-03-06T04:29:03.021Z,88.79
2023-03-06T04:31:29.964Z,87.88
2023-03-06T04:33:56.801Z,87.44
2023-03-06T04:36:33.146Z,87.42
2023-03-06T04:39:00.377Z,86.86
2023-03-06T04:41:27.266Z,86.83
2023-03-06T04:43:54.287Z,86.41
2023-03-06T04:46:21.127Z,86.49
2023-03-06T04:48:48.016Z,86.58
2023-03-06T04:51:15.557Z,85.69
2023-03-06T04:53:42.459Z,86.14
2023-03-06T04:56:09.703Z,86.75
2023-03-06T04:58:36.942Z,86.47
2023-03-06T05:01:04.377Z,86.64
2023-03-06T05:03:31.286Z,86.32
2023-03-06T05:05:58.136Z,86.35
2023-03-06T05:08:25.046Z,86.24
2023-03-06T05:10:57.483Z,86.88
2023-03-06T05:13:24.601Z,86.33
2023-03-06T05:15:51.895Z,86.95
2023-03-06T05:18:19.091Z,86.59
2023-03-06T05:20:46.078Z,87.22
2023-03-06T05:23:13.008Z,88.11
2023-03-06T05:25:40.997Z,88.99
2023-03-06T05:28:08.464Z,89.79
2023-03-06T05:30:35.726Z,89.72
2023-03-06T05:33:02.574Z,90.35
2023-03-06T05:35:29.506Z,91.23
2023-03-06T05:37:56.621Z,90.74
2023-03-06T05:40:23.419Z,90.37
2023-03-06T05:42:50.402Z,90.36
2023-03-06T05:45:17.422Z,89.93
2023-03-06T05:47:44.417Z,89.42
2023-03-06T05:50:12.225Z,88.93
2023-03-06T05:52:39.171Z,89.29
2023-03-06T05:55:07.248Z,88.82
2023-03-06T05:57:34.107Z,88.15
2023-03-06T06:00:01.061Z,88.24
2023-03-06T06:02:27.921Z,87.49
2023-03-06T06:04:54.775Z,87.15
2023-03-06T06:07:21.579Z,86.35
2023-03-06T06:09:48.388Z,85.39
2023-03-06T06:12:15.297Z,85.20
2023-03-06T06:14:42.262Z,84.49
2023-03-06T06:17:09.311Z,83.65
2023-03-06T06:19:36.254Z,83.32
2023-03-06T06:22:03.154Z,82.92
2023-03-06T06:24:31.392Z,82.41
2023-03-06T06:27:00.892Z,81.22
2023-03-06T06:29:30.529Z,79.53
2023-03-06T06:31:57.676Z,80.00
2023-03-06T06:34:25.676Z,78.99
2023-03-06T06:36:53.743Z,78.49
2023-03-06T06:39:23.174Z,77.43
2023-03-06T06:42:28.163Z,77.74
2023-03-06T06:44:37.728Z,79.05
2023-03-06T06:47:24.635Z,77.72
2023-03-06T06:49:53.485Z,76.48
2023-03-06T06:52:20.884Z,76.22
2023-03-06T06:54:47.934Z,77.46
2023-03-06T06:57:15.399Z,76.30
2023-03-06T06:59:42.646Z,76.52
2023-03-06T07:02:14.643Z,76.78
2023-03-06T07:04:56.216Z,77.17
2023-03-06T07:07:28.698Z,77.39
2023-03-06T07:09:55.686Z,76.55
2023-03-06T07:12:22.530Z,75.77
2023-03-06T07:14:49.504Z,75.62
2023-03-06T07:17:16.357Z,75.26
2023-03-06T07:19:43.237Z,75.14
2023-03-06T07:22:10.244Z,75.35
2023-03-06T07:24:37.044Z,74.88
2023-03-06T07:27:03.994Z,75.07
2023-03-06T07:29:30.930Z,73.19
2023-03-06T07:31:57.668Z,72.66
2023-03-06T07:34:24.460Z,72.39
2023-03-06T07:36:51.318Z,70.70
2023-03-06T07:39:18.644Z,70.99
2023-03-06T07:41:45.475Z,72.48
2023-03-06T07:44:12.405Z,72.79
2023-03-06T07:46:39.252Z,73.15
2023-03-06T07:49:06.044Z,72.16
2023-03-06T07:51:33.083Z,71.37
2023-03-06T07:53:59.875Z,71.38
2023-03-06T07:56:26.652Z,70.83
2023-03-06T07:58:55.285Z,69.77
2023-03-06T08:01:23.016Z,67.88
2023-03-06T08:03:50.528Z,71.16
2023-03-06T08:06:23.170Z,69.81
2023-03-06T08:08:51.325Z,68.85
2023-03-06T08:11:19.507Z,68.89
2023-03-06T08:13:46.981Z,69.03
2023-03-06T08:16:13.761Z,70.63
2023-03-06T08:18:40.640Z,68.76
2023-03-06T08:21:13.500Z,70.12
2023-03-06T08:23:41.272Z,70.24
2023-03-06T08:26:12.107Z,68.73
2023-03-06T08:28:39.617Z,69.27
2023-03-06T08:31:12.520Z,69.57
2023-03-06T08:33:40.510Z,66.94
2023-03-06T08:36:07.704Z,67.04
2023-03-06T08:38:34.564Z,62.18
2023-03-06T08:41:01.529Z,64.46
2023-03-06T08:43:28.333Z,68.69
2023-03-06T08:45:57.055Z,64.20
2023-03-06T08:48:24.071Z,64.03
2023-03-06T08:50:51.304Z,66.80
2023-03-06T08:53:18.360Z,67.07
2023-03-06T08:55:45.162Z,65.29
2023-03-06T08:58:11.982Z,65.42
2023-03-06T09:00:39.292Z,65.72
2023-03-06T09:03:06.377Z,65.48
2023-03-06T09:05:33.259Z,65.55
2023-03-06T09:08:00.187Z,61.84
2023-03-06T09:10:27.980Z,64.04
2023-03-06T09:12:55.428Z,63.03
2023-03-06T09:15:23.215Z,62.26
2023-03-06T09:17:50.656Z,64.04
2023-03-06T09:20:18.650Z,62.18
2023-03-06T09:22:45.958Z,64.16
2023-03-06T09:25:13.888Z,64.31
2023-03-06T09:27:41.332Z,70.00
2023-03-06T09:30:09.000Z,73.35
2023-03-06T09:32:36.045Z,74.09
2023-03-06T09:35:03.148Z,75.35
2023-03-06T09:37:30.435Z,72.67
2023-03-06T09:39:57.424Z,65.64
2023-03-06T09:42:25.051Z,63.68
2023-03-06T09:45:01.290Z,65.32
2023-03-06T09:47:34.025Z,69.01
2023-03-06T09:50:25.729Z,66.42
2023-03-06T09:53:32.805Z,66.83
2023-03-06T09:56:10.400Z,62.12
2023-03-06T09:59:17.355Z,60.94
2023-03-06T10:01:54.444Z,60.18
2023-03-06T10:04:39.294Z,60.40
2023-03-06T10:07:15.768Z,57.87
2023-03-06T10:09:48.332Z,58.06
2023-03-06T10:12:27.157Z,60.39
2023-03-06T10:15:07.152Z,58.23
2023-03-06T10:17:43.329Z,58.68
2023-03-06T10:20:53.614Z,58.82
2023-03-06T10:23:45.391Z,56.19
2023-03-06T10:26:17.082Z,56.56
2023-03-06T10:29:11.871Z,54.86
2023-03-06T10:31:44.781Z,56.70
2023-03-06T10:34:21.948Z,55.84
2023-03-06T10:36:49.164Z,53.69
2023-03-06T10:39:21.731Z,55.93
2023-03-06T10:41:49.995Z,57.51
2023-03-06T10:44:19.662Z,58.94
2023-03-06T10:46:49.467Z,59.03
2023-03-06T10:49:34.294Z,59.52
2023-03-06T10:52:07.498Z,55.73
2023-03-06T10:54:39.968Z,54.22
2023-03-06T10:57:25.629Z,56.75
2023-03-06T10:59:58.432Z,56.95
2023-03-06T11:02:32.238Z,54.30
2023-03-06T11:05:01.331Z,53.10
2023-03-06T11:07:36.041Z,51.70
2023-03-06T11:10:32.225Z,50.66
2023-03-06T11:13:03.390Z,53.03
2023-03-06T11:15:30.807Z,53.74
2023-03-06T11:18:08.247Z,54.17
2023-03-06T11:20:52.858Z,52.93
2023-03-06T11:23:34.999Z,54.63
2023-03-06T11:26:37.288Z,54.75
2023-03-06T11:29:26.555Z,54.52
2023-03-06T11:32:04.376Z,54.36
2023-03-06T11:34:53.398Z,55.15
2023-03-06T11:37:32.356Z,53.82
2023-03-06T11:40:11.082Z,54.89
2023-03-06T11:42:48.142Z,55.50
2023-03-06T11:45:33.420Z,58.69
2023-03-06T11:48:15.303Z,58.68
2023-03-06T11:50:46.344Z,56.35
2023-03-06T11:53:34.942Z,56.59
2023-03-06T11:56:20.325Z,56.79
2023-03-06T11:59:17.631Z,56.29
2023-03-06T12:02:15.365Z,56.00
2023-03-06T12:05:12.325Z,56.75
2023-03-06T12:08:11.438Z,59.52
2023-03-06T12:10:51.885Z,60.58
2023-03-06T12:13:46.267Z,59.36
2023-03-06T12:16:35.065Z,58.19
2023-03-06T12:19:31.683Z,58.46
2023-03-06T12:22:01.466Z,60.15
2023-03-06T12:25:05.135Z,59.93
2023-03-06T12:28:01.909Z,58.80
2023-03-06T12:30:31.847Z,58.68
2023-03-06T12:33:20.412Z,57.24
2023-03-06T12:36:02.198Z,57.50
2023-03-06T12:38:48.851Z,59.13
2023-03-06T12:41:56.159Z,60.78
2023-03-06T12:44:29.071Z,60.89
2023-03-06T12:47:03.094Z,62.27
2023-03-06T12:49:33.384Z,62.25
2023-03-06T12:52:02.307Z,63.31
2023-03-06T12:54:33.739Z,63.56
2023-03-06T12:57:01.167Z,62.65
2023-03-06T12:59:47.624Z,63.24
2023-03-06T13:02:23.346Z,63.42
2023-03-06T13:05:21.139Z,64.20
2023-03-06T13:07:50.705Z,62.74
2023-03-06T13:10:29.069Z,62.92
2023-03-06T13:12:59.376Z,62.64
2023-03-06T13:16:04.416Z,61.92
2023-03-06T13:18:34.024Z,62.96
2023-03-06T13:21:01.267Z,64.41
2023-03-06T13:23:31.016Z,60.74
2023-03-06T13:26:19.246Z,60.63
2023-03-06T13:28:48.563Z,57.54
2023-03-06T13:31:28.288Z,54.15
2023-03-06T13:33:58.688Z,55.58
2023-03-06T13:36:31.508Z,54.77
2023-03-06T13:39:07.446Z,53.65
2023-03-06T13:41:41.886Z,53.13
2023-03-06T13:44:23.740Z,52.05
2023-03-06T13:47:19.645Z,56.27
2023-03-06T13:49:48.566Z,57.03
2023-03-06T13:52:27.271Z,55.53
2023-03-06T13:55:31.937Z,58.09
2023-03-06T13:58:18.376Z,59.75
2023-03-06T14:01:36.039Z,60.64
2023-03-06T14:04:37.118Z,61.17
2023-03-06T14:07:07.060Z,62.62
2023-03-06T14:10:15.349Z,63.28
2023-03-06T14:12:42.317Z,64.34
2023-03-06T14:15:35.057Z,64.23
2023-03-06T14:18:14.142Z,63.94
2023-03-06T14:20:48.908Z,63.64
2023-03-06T14:23:33.897Z,64.49
2023-03-06T14:26:02.864Z,64.79
2023-03-06T14:28:31.801Z,65.60
2023-03-06T14:31:01.031Z,66.62
2023-03-06T14:33:53.847Z,67.00
2023-03-06T14:36:26.568Z,66.92
2023-03-06T14:38:57.028Z,66.07
2023-03-06T14:41:35.693Z,65.76
2023-03-06T14:44:17.729Z,66.17
2023-03-06T14:46:49.998Z,65.82
2023-03-06T14:49:19.788Z,65.52
2023-03-06T14:51:58.369Z,65.01
2023-03-06T14:54:30.245Z,65.33
2023-03-06T14:57:07.220Z,65.01
2023-03-06T14:59:54.086Z,64.56
2023-03-06T15:02:23.935Z,65.04
2023-03-06T15:05:00.171Z,64.77
2023-03-06T15:07:30.769Z,64.24
2023-03-06T15:09:58.489Z,65.26
2023-03-06T15:12:28.363Z,65.22
2023-03-06T15:15:02.928Z,63.89
2023-03-06T15:17:31.040Z,63.82
2023-03-06T15:20:01.351Z,63.49
2023-03-06T15:22:38.364Z,63.05
2023-03-06T15:25:19.899Z,62.76
2023-03-06T15:28:23.564Z,61.83
2023-03-06T15:31:07.520Z,62.38
2023-03-06T15:33:34.487Z,62.56
2023-03-06T15:36:03.936Z,62.37
2023-03-06T15:38:42.042Z,62.40
2023-03-06T15:41:27.328Z,62.44
2023-03-06T15:43:54.471Z,63.01
2023-03-06T15:46:21.361Z,63.17
2023-03-06T15:48:53.323Z,62.80
2023-03-06T15:51:20.531Z,62.55
2023-03-06T15:53:47.505Z,62.48
2023-03-06T15:56:14.435Z,62.62
2023-03-06T15:58:41.693Z,62.70
2023-03-06T16:01:15.037Z,63.08
2023-03-06T16:03:42.170Z,63.40
2023-03-06T16:06:19.483Z,63.71
2023-03-06T16:08:46.712Z,63.92
2023-03-06T16:11:43.249Z,63.96
2023-03-06T16:14:28.913Z,64.30
2023-03-06T16:16:56.947Z,64.32
2023-03-06T16:19:27.352Z,63.87
2023-03-06T16:21:55.962Z,64.48
2023-03-06T16:24:23.254Z,64.54
2023-03-06T16:26:52.232Z,64.05
2023-03-06T16:29:21.503Z,64.30
2023-03-06T16:31:48.972Z,64.50
2023-03-06T16:34:16.500Z,64.58
2023-03-06T16:36:43.443Z,65.07
2023-03-06T16:39:18.805Z,65.65
2023-03-06T16:41:45.637Z,66.06
2023-03-06T16:44:13.167Z,65.74
2023-03-06T16:46:42.819Z,65.39
2023-03-06T16:49:24.340Z,65.17
2023-03-06T16:51:53.063Z,64.95
2023-03-06T16:54:20.228Z,65.08
2023-03-06T16:56:47.058Z,64.63
2023-03-06T16:59:13.902Z,65.06
2023-03-06T17:01:41.687Z,64.63
2023-03-06T17:04:08.822Z,64.27
2023-03-06T17:06:35.774Z,64.09
2023-03-06T17:09:02.708Z,64.52
2023-03-06T17:11:29.722Z,64.29
2023-03-06T17:13:56.717Z,64.29
2023-03-06T17:16:24.269Z,63.82
2023-03-06T17:18:51.153Z,64.27
2023-03-06T17:21:18.071Z,63.84
2023-03-06T17:23:44.973Z,64.34
2023-03-06T17:26:17.698Z,63.75
2023-03-06T17:28:45.516Z,64.17
2023-03-06T17:31:19.894Z,63.98
2023-03-06T17:33:47.129Z,64.01
2023-03-06T17:36:15.012Z,64.42
2023-03-06T17:38:42.863Z,65.02
2023-03-06T17:41:10.840Z,64.16
2023-03-06T17:43:38.814Z,64.83
2023-03-06T17:46:07.990Z,64.46
2023-03-06T17:48:35.706Z,64.75
2023-03-06T17:51:02.922Z,64.62
2023-03-06T17:53:29.865Z,64.25
2023-03-06T17:55:57.132Z,64.37
2023-03-06T17:58:25.094Z,64.11
2023-03-06T18:00:52.040Z,64.45
2023-03-06T18:03:19.056Z,64.97
2023-03-06T18:05:45.890Z,64.05
2023-03-06T18:08:12.962Z,64.04
2023-03-06T18:10:43.191Z,64.07
2023-03-06T18:13:11.148Z,63.82
2023-03-06T18:15:40.440Z,63.69
2023-03-06T18:18:11.318Z,63.83
2023-03-06T18:20:41.732Z,63.39
2023-03-06T18:23:08.862Z,63.17
2023-03-06T18:25:36.059Z,63.58
2023-03-06T18:28:06.130Z,63.99
2023-03-06T18:30:38.139Z,63.84
2023-03-06T18:33:05.147Z,63.46
2023-03-06T18:35:33.987Z,63.25
2023-03-06T18:38:01.208Z,63.28
2023-03-06T18:40:28.227Z,63.73
2023-03-06T18:42:55.168Z,64.08
2023-03-06T18:45:21.938Z,64.43
2023-03-06T18:47:48.813Z,64.80
2023-03-06T18:50:16.067Z,63.91
2023-03-06T18:52:44.227Z,64.39
2023-03-06T18:55:13.680Z,64.05
2023-03-06T18:57:44.328Z,64.21
2023-03-06T19:00:14.981Z,64.68
2023-03-06T19:02:43.724Z,64.58
2023-03-06T19:05:13.917Z,65.40
2023-03-06T19:07:40.812Z,65.30
2023-03-06T19:10:08.039Z,65.43
2023-03-06T19:12:35.017Z,65.67
2023-03-06T19:15:03.339Z,66.00
2023-03-06T19:17:30.130Z,65.91
2023-03-06T19:19:57.056Z,65.90
2023-03-06T19:22:23.863Z,66.09
2023-03-06T19:24:53.719Z,66.06
2023-03-06T19:27:20.650Z,67.73
2023-03-06T19:29:47.449Z,67.66
2023-03-06T19:32:14.323Z,67.25
2023-03-06T19:34:44.410Z,67.61
2023-03-06T19:37:11.255Z,67.47
2023-03-06T19:39:38.020Z,68.30
2023-03-06T19:42:05.021Z,68.09
2023-03-06T19:44:32.016Z,69.18
2023-03-06T19:46:58.942Z,70.25
2023-03-06T19:49:26.005Z,69.46
2023-03-06T19:51:54.474Z,68.56
2023-03-06T19:54:21.406Z,68.38
2023-03-06T19:56:48.336Z,68.45
2023-03-06T19:59:15.088Z,69.38
2023-03-06T20:01:41.884Z,72.69
2023-03-06T20:04:08.969Z,74.73
2023-03-06T20:06:35.956Z,75.68
2023-03-06T20:09:07.140Z,76.15
2023-03-06T20:11:34.141Z,75.31
2023-03-06T20:14:03.167Z,74.96
2023-03-06T20:16:30.987Z,74.91
2023-03-06T20:18:59.077Z,73.18
2023-03-06T20:21:27.813Z,72.22
2023-03-06T20:23:55.429Z,72.59
2023-03-06T20:26:22.344Z,72.03
2023-03-06T20:28:49.198Z,72.63
2023-03-06T20:31:21.005Z,71.89
2023-03-06T20:33:52.518Z,72.55
2023-03-06T20:36:27.658Z,73.47
2023-03-06T20:38:55.747Z,73.40
2023-03-06T20:41:27.499Z,72.20
2023-03-06T20:43:54.939Z,72.28
2023-03-06T20:46:23.300Z,71.67
2023-03-06T20:48:52.004Z,73.29
2023-03-06T20:51:21.624Z,74.49
2023-03-06T20:53:50.747Z,73.37
2023-03-06T20:56:23.450Z,72.70
2023-03-06T20:58:50.654Z,71.95
2023-03-06T21:01:28.731Z,72.00
2023-03-06T21:03:56.516Z,72.57
2023-03-06T21:06:23.973Z,72.45
2023-03-06T21:08:51.654Z,72.02
2023-03-06T21:11:21.568Z,71.20
2023-03-06T21:13:48.899Z,70.80
2023-03-06T21:16:19.302Z,71.32
2023-03-06T21:18:46.873Z,71.81
2023-03-06T21:21:24.878Z,75.19
2023-03-06T21:23:52.279Z,74.54
2023-03-06T21:26:21.983Z,74.06
2023-03-06T21:28:49.535Z,73.71
2023-03-06T21:31:19.279Z,73.51
2023-03-06T21:33:47.534Z,73.20
2023-03-06T21:36:15.204Z,72.55
2023-03-06T21:38:42.348Z,72.29
2023-03-06T21:41:20.349Z,74.66
2023-03-06T21:43:47.332Z,77.82
2023-03-06T21:46:14.389Z,79.54
2023-03-06T21:48:41.490Z,78.43
2023-03-06T21:51:13.601Z,77.36
2023-03-06T21:53:44.455Z,75.88
2023-03-06T21:56:11.945Z,75.23
2023-03-06T21:58:39.119Z,75.11
2023-03-06T22:01:11.302Z,74.56
2023-03-06T22:03:38.399Z,74.44
2023-03-06T22:06:10.351Z,74.88
2023-03-06T22:08:37.224Z,77.06
2023-03-06T22:11:09.484Z,77.98
2023-03-06T22:13:37.249Z,78.49
2023-03-06T22:16:05.171Z,78.04
2023-03-06T22:18:33.061Z,78.82
2023-03-06T22:20:59.998Z,79.34
2023-03-06T22:23:27.027Z,78.50
2023-03-06T22:25:53.814Z,78.00
2023-03-06T22:28:20.670Z,77.60
2023-03-06T22:30:47.408Z,78.12
2023-03-06T22:33:14.219Z,78.14
2023-03-06T22:35:41.094Z,78.16
2023-03-06T22:38:07.858Z,77.57
2023-03-06T22:40:34.660Z,77.04
2023-03-06T22:43:01.551Z,77.35
2023-03-06T22:45:28.412Z,77.20
2023-03-06T22:48:02.341Z,76.51
2023-03-06T22:50:36.052Z,76.39
2023-03-06T22:53:02.871Z,76.67
2023-03-06T22:55:29.712Z,76.54
2023-03-06T22:57:56.579Z,76.18
2023-03-06T23:00:23.551Z,75.82
2023-03-06T23:02:50.410Z,79.10
2023-03-06T23:05:17.312Z,79.15
2023-03-06T23:07:44.232Z,78.39
2023-03-06T23:10:11.310Z,77.82
2023-03-06T23:12:38.322Z,78.23
2023-03-06T23:15:05.547Z,77.28
2023-03-06T23:17:32.373Z,77.91
2023-03-06T23:19:59.159Z,78.81
2023-03-06T23:22:26.228Z,77.21
2023-03-06T23:24:53.017Z,77.11
2023-03-06T23:27:19.857Z,78.16
2023-03-06T23:29:50.024Z,78.13
2023-03-06T23:32:16.817Z,77.08
2023-03-06T23:34:43.721Z,76.79
2023-03-06T23:37:10.548Z,77.28
2023-03-06T23:39:37.424Z,78.65
2023-03-06T23:42:04.345Z,79.19
2023-03-06T23:44:31.080Z,80.59
2023-03-06T23:46:57.878Z,80.70
2023-03-06T23:49:24.682Z,81.13
2023-03-06T23:51:51.487Z,82.93
2023-03-06T23:54:18.268Z,83.48
2023-03-06T23:56:45.277Z,84.18
2023-03-06T23:59:12.511Z,83.37
